createdAt,value
2023-04-11T00:01:15.430Z,15.00
2023-04-11T00:03:43.730Z,15.00
2023-04-11T00:06:12.372Z,15.00
2023-04-11T00:08:42.313Z,15.00
2023-04-11T00:11:10.830Z,15.00
2023-04-11T00:13:38.868Z,15.00
2023-04-11T00:16:08.823Z,15.00
2023-04-11T00:18:39.842Z,15.00
2023-04-11T00:21:10.360Z,15.00
2023-04-11T00:23:38.901Z,15.00
2023-04-11T00:26:08.855Z,15.00
2023-04-11T00:28:37.462Z,14.90
2023-04-11T00:31:05.812Z,14.90
2023-04-11T00:33:34.336Z,14.90
2023-04-11T00:36:03.066Z,14.90
2023-04-11T00:38:31.181Z,14.90
2023-04-11T00:40:59.707Z,14.90
2023-04-11T00:43:29.105Z,14.90
2023-04-11T00:45:57.833Z,14.90
2023-04-11T00:48:28.370Z,14.90
2023-04-11T00:50:57.340Z,14.90
2023-04-11T00:53:25.952Z,14.90
2023-04-11T00:55:54.646Z,14.90
2023-04-11T00:58:22.753Z,14.90
2023-04-11T01:00:52.714Z,14.90
2023-04-11T01:03:22.355Z,14.90
2023-04-11T01:05:53.939Z,14.90
2023-04-11T01:08:23.939Z,14.90
2023-04-11T01:10:51.992Z,14.90
2023-04-11T01:13:20.781Z,14.90
2023-04-11T01:15:49.034Z,14.90
2023-04-11T01:18:18.954Z,14.90
2023-04-11T01:20:47.497Z,14.90
2023-04-11T01:23:22.440Z,14.80
2023-04-11T01:25:50.772Z,14.90
2023-04-11T01:28:20.203Z,14.80
2023-04-11T01:30:49.212Z,14.80
2023-04-11T01:33:18.159Z,14.80
2023-04-11T01:35:46.722Z,14.80
2023-04-11T01:38:15.436Z,14.80
2023-04-11T01:40:46.024Z,14.80
2023-04-11T01:43:14.677Z,14.80
2023-04-11T01:45:42.771Z,14.70
2023-04-11T01:48:11.436Z,14.70
2023-04-11T01:50:40.013Z,14.70
2023-04-11T01:53:08.710Z,14.70
2023-04-11T01:55:36.761Z,14.70
2023-04-11T01:58:06.651Z,14.70
2023-04-11T02:00:37.466Z,14.60
2023-04-11T02:03:05.784Z,14.60
2023-04-11T02:05:34.501Z,14.60
2023-04-11T02:08:03.064Z,14.60
2023-04-11T02:10:31.116Z,14.60
2023-04-11T02:12:59.657Z,14.50
2023-04-11T02:15:29.645Z,14.50
2023-04-11T02:18:00.377Z,14.50
2023-04-11T02:20:29.517Z,14.50
2023-04-11T02:22:59.149Z,14.40
2023-04-11T02:25:27.193Z,14.40
2023-04-11T02:27:55.799Z,14.40
2023-04-11T02:30:24.079Z,14.30
2023-04-11T02:32:54.090Z,14.30
2023-04-11T02:35:22.203Z,14.20
2023-04-11T02:37:50.756Z,14.20
2023-04-11T02:40:18.944Z,14.20
2023-04-11T02:42:47.024Z,14.10
2023-04-11T02:45:15.703Z,14.10
2023-04-11T02:47:43.807Z,14.00
2023-04-11T02:50:13.389Z,14.00
2023-04-11T02:52:42.720Z,14.00
2023-04-11T02:55:11.391Z,14.00
2023-04-11T02:57:39.926Z,13.90
2023-04-11T03:00:09.713Z,13.90
2023-04-11T03:02:38.486Z,14.00
2023-04-11T03:05:07.723Z,14.00
2023-04-11T03:07:38.970Z,14.00
2023-04-11T03:10:08.402Z,14.00
2023-04-11T03:12:36.965Z,14.00
2023-04-11T03:15:06.065Z,14.00
2023-04-11T03:17:35.992Z,14.00
2023-04-11T03:20:07.186Z,14.00
2023-04-11T03:22:37.142Z,14.00
2023-04-11T03:25:06.453Z,14.10
2023-04-11T03:27:34.981Z,14.10
2023-04-11T03:30:03.695Z,14.10
2023-04-11T03:32:32.037Z,14.10
2023-04-11T03:35:02.581Z,14.10
2023-04-11T03:37:30.661Z,14.10
2023-04-11T03:40:00.101Z,14.10
2023-04-11T03:42:28.770Z,14.10
2023-04-11T03:44:56.850Z,14.10
2023-04-11T03:47:25.435Z,14.20
2023-04-11T03:49:53.535Z,14.10
2023-04-11T03:52:21.597Z,14.10
2023-04-11T03:54:50.143Z,14.10
2023-04-11T03:57:19.563Z,14.10
2023-04-11T03:59:48.437Z,14.10
2023-04-11T04:02:17.475Z,14.10
2023-04-11T04:04:48.696Z,14.10
2023-04-11T04:07:18.569Z,14.10
2023-04-11T04:09:46.650Z,14.10
2023-04-11T04:12:15.251Z,14.10
2023-04-11T04:14:44.707Z,14.00
2023-04-11T04:17:14.144Z,14.00
2023-04-11T04:19:42.743Z,14.00
2023-04-11T04:22:13.333Z,14.00
2023-04-11T04:24:42.674Z,14.00
2023-04-11T04:27:11.198Z,14.00
2023-04-11T04:29:39.600Z,14.00
2023-04-11T04:32:11.580Z,14.00
2023-04-11T04:34:47.229Z,14.00
2023-04-11T04:37:21.793Z,14.00
2023-04-11T04:39:54.745Z,14.00
2023-04-11T04:42:24.620Z,14.00
2023-04-11T04:44:53.407Z,14.00
2023-04-11T04:47:25.110Z,14.10
2023-04-11T04:49:57.089Z,14.10
2023-04-11T04:52:26.296Z,14.00
2023-04-11T04:54:57.866Z,14.10
2023-04-11T04:57:25.971Z,14.00
2023-04-11T04:59:54.161Z,14.10
2023-04-11T05:02:25.555Z,14.10
2023-04-11T05:04:54.625Z,14.00
2023-04-11T05:07:22.684Z,14.00
2023-04-11T05:09:50.798Z,14.00
2023-04-11T05:12:20.279Z,14.00
2023-04-11T05:14:49.116Z,13.90
2023-04-11T05:17:17.700Z,14.00
2023-04-11T05:19:47.117Z,13.90
2023-04-11T05:22:15.637Z,13.80
2023-04-11T05:24:43.922Z,13.80
2023-04-11T05:27:13.985Z,13.70
2023-04-11T05:29:42.066Z,13.60
2023-04-11T05:32:10.632Z,13.60
2023-04-11T05:34:56.536Z,13.50
2023-04-11T05:37:26.532Z,13.50
2023-04-11T05:39:56.793Z,13.40
2023-04-11T05:42:25.283Z,13.40
2023-04-11T05:44:53.354Z,13.40
2023-04-11T05:47:21.968Z,13.30
2023-04-11T05:49:50.090Z,13.20
2023-04-11T05:52:19.514Z,13.20
2023-04-11T05:54:48.045Z,13.20
2023-04-11T05:57:17.508Z,13.10
2023-04-11T05:59:49.804Z,13.10
2023-04-11T06:02:18.518Z,13.10
2023-04-11T06:04:47.025Z,13.10
2023-04-11T06:07:15.798Z,13.00
2023-04-11T06:09:45.542Z,13.00
2023-04-11T06:12:14.061Z,13.00
2023-04-11T06:14:42.178Z,13.00
2023-04-11T06:17:10.719Z,13.00
2023-04-11T06:19:39.272Z,13.00
2023-04-11T06:22:07.334Z,13.00
2023-04-11T06:24:40.118Z,13.00
2023-04-11T06:27:10.865Z,13.00
2023-04-11T06:29:39.030Z,13.00
2023-04-11T06:32:07.852Z,12.90
2023-04-11T06:34:36.265Z,12.90
2023-04-11T06:37:04.795Z,12.90
2023-04-11T06:39:33.339Z,12.90
2023-04-11T06:42:02.166Z,12.90
2023-04-11T06:44:32.125Z,12.90
2023-04-11T06:47:01.145Z,12.90
2023-04-11T06:49:29.532Z,12.90
2023-04-11T06:51:58.105Z,12.90
2023-04-11T06:54:26.731Z,12.90
2023-04-11T06:56:54.794Z,12.90
2023-04-11T06:59:24.650Z,12.90
2023-04-11T07:01:54.373Z,12.90
2023-04-11T07:04:23.233Z,12.90
2023-04-11T07:06:51.702Z,12.90
2023-04-11T07:09:19.809Z,12.90
2023-04-11T07:11:48.316Z,12.90
2023-04-11T07:14:16.391Z,12.90
2023-04-11T07:16:45.008Z,12.90
2023-04-11T07:19:14.474Z,12.90
2023-04-11T07:21:43.348Z,12.90
2023-04-11T07:24:13.238Z,12.90
2023-04-11T07:26:42.781Z,12.90
2023-04-11T07:29:13.096Z,12.90
2023-04-11T07:31:45.326Z,12.90
2023-04-11T07:34:15.472Z,12.90
2023-04-11T07:36:43.538Z,12.90
2023-04-11T07:39:14.562Z,12.90
2023-04-11T07:41:42.651Z,12.90
2023-04-11T07:44:11.262Z,13.00
2023-04-11T07:46:39.366Z,13.00
2023-04-11T07:49:08.026Z,13.00
2023-04-11T07:51:37.578Z,13.00
2023-04-11T07:54:06.180Z,13.10
2023-04-11T07:56:34.733Z,13.10
2023-04-11T07:59:03.323Z,13.10
2023-04-11T08:01:32.076Z,13.10
2023-04-11T08:04:01.004Z,13.10
2023-04-11T08:06:31.930Z,13.10
2023-04-11T08:09:01.990Z,13.10
2023-04-11T08:11:30.536Z,13.10
2023-04-11T08:13:58.919Z,13.10
2023-04-11T08:16:27.707Z,13.10
2023-04-11T08:18:57.275Z,13.10
2023-04-11T08:21:25.941Z,13.20
2023-04-11T08:23:54.137Z,13.20
2023-04-11T08:26:24.688Z,13.20
2023-04-11T08:28:53.195Z,13.20
2023-04-11T08:31:21.903Z,13.30
2023-04-11T08:33:50.137Z,13.30
2023-04-11T08:36:18.728Z,13.30
2023-04-11T08:38:46.813Z,13.30
2023-04-11T08:41:15.851Z,13.30
2023-04-11T08:43:47.450Z,13.40
2023-04-11T08:46:16.361Z,13.40
2023-04-11T08:48:45.183Z,13.30
2023-04-11T08:51:14.784Z,13.30
2023-04-11T08:53:44.063Z,13.30
2023-04-11T08:56:17.239Z,13.30
2023-04-11T08:58:47.447Z,13.30
2023-04-11T09:01:30.403Z,13.30
2023-04-11T09:04:00.036Z,13.30
2023-04-11T09:06:30.786Z,13.40
2023-04-11T09:09:00.539Z,13.40
2023-04-11T09:11:28.695Z,13.50
2023-04-11T09:14:11.956Z,13.50
2023-04-11T09:16:55.144Z,13.60
2023-04-11T09:19:27.722Z,13.70
2023-04-11T09:21:58.611Z,13.70
2023-04-11T09:24:27.115Z,13.70
2023-04-11T09:27:09.269Z,13.80
2023-04-11T09:29:40.723Z,13.80
2023-04-11T09:32:09.902Z,13.80
2023-04-11T09:34:41.153Z,13.90
2023-04-11T09:37:10.992Z,13.90
2023-04-11T09:39:39.111Z,13.90
2023-04-11T09:42:25.827Z,13.90
2023-04-11T09:44:55.314Z,13.90
2023-04-11T09:47:23.821Z,13.90
2023-04-11T09:49:52.877Z,13.90
2023-04-11T09:52:22.262Z,13.90
2023-04-11T09:54:51.924Z,13.90
2023-04-11T09:57:23.087Z,13.90
2023-04-11T09:59:53.498Z,13.90
2023-04-11T10:02:23.620Z,13.90
2023-04-11T10:04:53.473Z,13.90
2023-04-11T10:07:23.276Z,13.90
2023-04-11T10:09:51.448Z,13.90
2023-04-11T10:12:32.685Z,14.00
2023-04-11T10:15:08.747Z,14.00
2023-04-11T10:17:39.854Z,14.10
2023-04-11T10:20:43.873Z,14.20
2023-04-11T10:23:13.229Z,14.30
2023-04-11T10:25:56.022Z,14.30
2023-04-11T10:28:35.795Z,14.40
2023-04-11T10:31:06.416Z,14.40
2023-04-11T10:33:38.432Z,14.50
2023-04-11T10:36:10.867Z,14.50
2023-04-11T10:38:50.007Z,14.70
2023-04-11T10:41:29.645Z,14.70
2023-04-11T10:44:18.451Z,14.80
2023-04-11T10:46:48.795Z,14.90
2023-04-11T10:49:38.978Z,14.90
2023-04-11T10:52:21.752Z,15.00
2023-04-11T10:54:51.737Z,15.10
2023-04-11T10:57:20.421Z,15.20
2023-04-11T11:00:01.655Z,15.30
2023-04-11T11:02:40.096Z,15.40
2023-04-11T11:05:22.216Z,15.50
2023-04-11T11:07:51.522Z,15.50
2023-04-11T11:10:39.017Z,15.50
2023-04-11T11:13:07.164Z,15.50
2023-04-11T11:15:37.763Z,15.50
2023-04-11T11:18:08.841Z,15.50
2023-04-11T11:20:38.825Z,15.50
2023-04-11T11:23:08.800Z,15.50
2023-04-11T11:25:37.472Z,15.50
2023-04-11T11:28:08.135Z,15.60
2023-04-11T11:30:37.022Z,15.60
2023-04-11T11:33:20.703Z,15.50
2023-04-11T11:35:54.304Z,15.50
2023-04-11T11:38:24.574Z,15.50
2023-04-11T11:40:53.460Z,15.50
2023-04-11T11:43:22.218Z,15.60
2023-04-11T11:46:09.535Z,15.60
2023-04-11T11:48:37.915Z,15.70
2023-04-11T11:51:07.866Z,15.80
2023-04-11T11:53:36.430Z,15.80
2023-04-11T11:56:14.961Z,15.90
2023-04-11T11:58:46.613Z,16.10
2023-04-11T12:01:17.587Z,16.20
2023-04-11T12:03:49.680Z,16.40
2023-04-11T12:06:19.707Z,16.50
2023-04-11T12:08:51.707Z,16.60
2023-04-11T12:11:20.428Z,16.70
2023-04-11T12:13:54.291Z,16.80
2023-04-11T12:16:24.157Z,16.90
2023-04-11T12:18:52.441Z,17.00
2023-04-11T12:21:22.329Z,17.00
2023-04-11T12:23:50.388Z,17.00
2023-04-11T12:26:21.416Z,17.00
2023-04-11T12:28:50.490Z,17.00
2023-04-11T12:31:19.307Z,17.00
2023-04-11T12:33:47.423Z,17.00
2023-04-11T12:36:16.009Z,17.00
2023-04-11T12:38:45.616Z,17.00
2023-04-11T12:41:31.686Z,17.00
2023-04-11T12:44:02.600Z,17.00
2023-04-11T12:46:30.847Z,17.00
2023-04-11T12:48:59.397Z,17.00
2023-04-11T12:51:28.031Z,17.10
2023-04-11T12:53:57.465Z,17.20
2023-04-11T12:56:26.216Z,17.40
2023-04-11T12:58:54.391Z,17.60
2023-04-11T13:01:24.069Z,17.70
2023-04-11T13:03:52.268Z,17.90
2023-04-11T13:06:21.132Z,18.00
2023-04-11T13:08:49.722Z,18.20
2023-04-11T13:11:19.166Z,18.30
2023-04-11T13:13:47.208Z,18.50
2023-04-11T13:16:15.794Z,18.60
2023-04-11T13:18:44.404Z,18.80
2023-04-11T13:21:12.951Z,19.00
2023-04-11T13:23:41.004Z,19.20
2023-04-11T13:26:09.946Z,19.30
2023-04-11T13:28:39.389Z,19.50
2023-04-11T13:31:10.766Z,19.70
2023-04-11T13:33:40.500Z,19.80
2023-04-11T13:36:10.396Z,20.00
2023-04-11T13:38:38.643Z,20.10
2023-04-11T13:41:07.518Z,20.30
2023-04-11T13:43:35.701Z,20.40
2023-04-11T13:46:05.890Z,20.40
2023-04-11T13:48:34.446Z,20.40
2023-04-11T13:51:02.520Z,20.30
2023-04-11T13:53:31.237Z,20.10
2023-04-11T13:55:59.275Z,19.80
2023-04-11T13:58:27.347Z,19.60
2023-04-11T14:00:56.342Z,19.40
2023-04-11T14:03:25.949Z,19.20
2023-04-11T14:05:54.119Z,18.90
2023-04-11T14:08:22.148Z,18.70
2023-04-11T14:10:50.242Z,18.50
2023-04-11T14:13:18.288Z,18.30
2023-04-11T14:15:49.604Z,18.10
2023-04-11T14:18:20.177Z,17.90
2023-04-11T14:20:49.767Z,17.60
2023-04-11T14:23:18.545Z,17.40
2023-04-11T14:25:46.595Z,17.30
2023-04-11T14:28:14.785Z,17.30
2023-04-11T14:30:42.902Z,17.40
2023-04-11T14:33:11.078Z,17.50
2023-04-11T14:35:39.637Z,17.70
2023-04-11T14:38:09.093Z,18.00
2023-04-11T14:40:37.623Z,18.30
2023-04-11T14:43:06.421Z,18.60
2023-04-11T14:45:34.524Z,18.90
2023-04-11T14:48:03.526Z,19.20
2023-04-11T14:50:31.898Z,19.40
2023-04-11T14:53:01.474Z,19.60
2023-04-11T14:55:30.958Z,19.80
2023-04-11T14:57:59.530Z,19.90
2023-04-11T15:00:28.849Z,19.90
2023-04-11T15:02:57.950Z,20.00
2023-04-11T15:05:27.240Z,20.00
2023-04-11T15:07:55.522Z,20.00
2023-04-11T15:10:25.646Z,20.10
2023-04-11T15:12:55.659Z,20.20
2023-04-11T15:15:23.928Z,20.40
2023-04-11T15:18:24.717Z,20.50
2023-04-11T15:20:53.511Z,20.70
2023-04-11T15:23:22.363Z,20.90
2023-04-11T15:25:54.735Z,21.10
2023-04-11T15:28:25.989Z,21.20
2023-04-11T15:30:55.897Z,21.30
2023-04-11T15:33:25.102Z,21.40
2023-04-11T15:35:54.302Z,21.50
2023-04-11T15:38:23.377Z,21.60
2023-04-11T15:40:52.493Z,21.70
2023-04-11T15:43:20.931Z,21.80
2023-04-11T15:45:52.792Z,22.00
2023-04-11T15:48:21.007Z,22.10
2023-04-11T15:50:49.063Z,22.20
2023-04-11T15:53:17.611Z,22.30
2023-04-11T15:55:47.187Z,22.40
2023-04-11T15:58:15.840Z,22.40
2023-04-11T16:00:44.794Z,22.50
2023-04-11T16:03:17.051Z,22.60
2023-04-11T16:05:45.716Z,22.60
2023-04-11T16:08:13.792Z,22.60
2023-04-11T16:10:42.336Z,22.60
2023-04-11T16:13:10.703Z,22.60
2023-04-11T16:15:39.247Z,22.60
2023-04-11T16:18:07.899Z,22.50
2023-04-11T16:20:37.417Z,22.50
2023-04-11T16:23:05.949Z,22.50
2023-04-11T16:25:34.040Z,22.50
2023-04-11T16:28:02.559Z,22.40
2023-04-11T16:30:31.120Z,22.30
2023-04-11T16:32:59.243Z,22.20
2023-04-11T16:35:27.871Z,22.10
2023-04-11T16:37:57.801Z,21.90
2023-04-11T16:40:26.429Z,21.80
2023-04-11T16:42:54.498Z,21.70
2023-04-11T16:45:23.367Z,21.50
2023-04-11T16:47:51.481Z,21.30
2023-04-11T16:50:19.621Z,21.20
2023-04-11T16:52:48.164Z,21.00
2023-04-11T16:55:17.924Z,20.90
2023-04-11T16:57:46.562Z,20.80
2023-04-11T17:00:20.327Z,20.60
2023-04-11T17:02:49.280Z,20.40
2023-04-11T17:05:18.996Z,20.30
2023-04-11T17:07:47.717Z,20.10
2023-04-11T17:10:17.865Z,20.00
2023-04-11T17:12:45.909Z,19.80
2023-04-11T17:15:14.685Z,19.70
2023-04-11T17:17:42.788Z,19.50
2023-04-11T17:20:13.185Z,19.40
2023-04-11T17:22:43.845Z,19.30
2023-04-11T17:25:11.968Z,19.10
2023-04-11T17:27:41.888Z,19.00
2023-04-11T17:30:12.274Z,18.90
2023-04-11T17:32:40.539Z,18.70
2023-04-11T17:35:09.619Z,18.60
2023-04-11T17:37:39.903Z,18.50
2023-04-11T17:40:13.521Z,18.40
2023-04-11T17:42:43.326Z,18.30
2023-04-11T17:45:17.253Z,18.10
2023-04-11T17:47:47.588Z,18.00
2023-04-11T17:50:16.376Z,17.90
2023-04-11T17:52:46.651Z,17.70
2023-04-11T17:55:16.801Z,17.60
2023-04-11T17:57:48.998Z,17.50
2023-04-11T18:00:22.352Z,17.40
2023-04-11T18:02:53.469Z,17.30
2023-04-11T18:05:24.997Z,17.20
2023-04-11T18:07:56.583Z,17.10
2023-04-11T18:10:26.319Z,17.00
2023-04-11T18:12:57.442Z,16.90
2023-04-11T18:15:28.521Z,16.80
2023-04-11T18:17:56.628Z,16.70
2023-04-11T18:20:24.727Z,16.60
2023-04-11T18:22:56.580Z,16.50
2023-04-11T18:25:24.942Z,16.40
2023-04-11T18:27:52.975Z,16.40
2023-04-11T18:30:22.556Z,16.30
2023-04-11T18:32:53.639Z,16.30
2023-04-11T18:35:22.209Z,16.30
2023-04-11T18:37:51.524Z,16.20
2023-04-11T18:40:19.681Z,16.20
2023-04-11T18:42:51.752Z,16.20
2023-04-11T18:45:22.383Z,16.10
2023-04-11T18:47:51.520Z,16.10
2023-04-11T18:50:19.986Z,16.00
2023-04-11T18:52:53.027Z,16.00
2023-04-11T18:55:23.214Z,16.00
2023-04-11T18:57:53.334Z,16.00
2023-04-11T19:00:26.062Z,15.90
2023-04-11T19:02:54.795Z,15.90
2023-04-11T19:05:25.581Z,15.80
2023-04-11T19:07:54.322Z,15.80
2023-04-11T19:10:22.559Z,14.20
2023-04-11T19:12:51.138Z,15.70
2023-04-11T19:15:19.354Z,15.70
2023-04-11T19:17:49.349Z,15.60
2023-04-11T19:20:18.925Z,15.60
2023-04-11T19:22:47.633Z,15.50
2023-04-11T19:25:15.896Z,15.50
2023-04-11T19:27:44.807Z,15.40
2023-04-11T19:30:14.402Z,15.40
2023-04-11T19:32:46.130Z,15.40
2023-04-11T19:35:16.214Z,15.30
2023-04-11T19:37:44.480Z,15.30
2023-04-11T19:40:13.592Z,15.20
2023-04-11T19:42:43.371Z,15.20
2023-04-11T19:45:12.226Z,15.10
2023-04-11T19:47:41.496Z,15.10
2023-04-11T19:50:13.149Z,15.00
2023-04-11T19:52:44.385Z,15.00
2023-04-11T19:55:13.004Z,14.90
2023-04-11T19:57:44.041Z,14.90
2023-04-11T20:00:14.144Z,14.80
2023-04-11T20:02:45.924Z,14.80
2023-04-11T20:05:16.054Z,14.70
2023-04-11T20:07:45.800Z,14.70
2023-04-11T20:10:14.766Z,14.70
2023-04-11T20:12:43.355Z,14.60
2023-04-11T20:15:14.399Z,14.50
2023-04-11T20:17:45.906Z,14.40
2023-04-11T20:20:15.503Z,14.40
2023-04-11T20:22:46.283Z,14.30
2023-04-11T20:25:14.432Z,14.20
2023-04-11T20:27:43.572Z,14.10
2023-04-11T20:30:13.236Z,14.00
2023-04-11T20:32:42.680Z,14.00
2023-04-11T20:35:15.818Z,13.90
2023-04-11T20:37:45.436Z,13.90
2023-04-11T20:40:14.411Z,13.80
2023-04-11T20:42:45.424Z,13.80
2023-04-11T20:45:16.138Z,13.80
2023-04-11T20:47:46.251Z,13.80
2023-04-11T20:50:16.329Z,13.80
2023-04-11T20:52:47.645Z,13.80
2023-04-11T20:55:15.793Z,13.70
2023-04-11T20:57:44.773Z,13.70
2023-04-11T21:00:14.888Z,13.70
2023-04-11T21:02:44.399Z,13.70
2023-04-11T21:05:13.332Z,13.70
2023-04-11T21:07:43.271Z,13.60
2023-04-11T21:10:13.333Z,13.60
2023-04-11T21:12:42.415Z,13.60
2023-04-11T21:15:12.287Z,13.50
2023-04-11T21:17:40.550Z,13.50
2023-04-11T21:20:18.302Z,13.50
2023-04-11T21:22:48.154Z,13.50
2023-04-11T21:25:18.101Z,13.40
2023-04-11T21:27:46.583Z,13.40
2023-04-11T21:30:15.974Z,13.30
2023-04-11T21:32:44.594Z,13.30
2023-04-11T21:35:13.391Z,13.20
2023-04-11T21:37:41.953Z,13.20
2023-04-11T21:40:11.161Z,13.20
2023-04-11T21:42:40.987Z,13.10
2023-04-11T21:45:10.507Z,13.10
2023-04-11T21:47:39.234Z,13.10
2023-04-11T21:50:08.509Z,13.00
2023-04-11T21:52:36.655Z,13.00
2023-04-11T21:55:07.196Z,13.00
2023-04-11T21:57:37.423Z,13.00
2023-04-11T22:00:11.298Z,13.00
2023-04-11T22:02:40.233Z,13.00
2023-04-11T22:05:09.950Z,13.00
2023-04-11T22:07:47.839Z,13.00
2023-04-11T22:10:22.185Z,13.00
2023-04-11T22:12:50.827Z,13.00
2023-04-11T22:15:20.256Z,13.00
2023-04-11T22:17:51.381Z,13.00
2023-04-11T22:20:20.057Z,12.90
2023-04-11T22:22:48.169Z,12.90
2023-04-11T22:25:18.452Z,12.90
2023-04-11T22:27:46.575Z,12.90
2023-04-11T22:30:16.925Z,12.90
2023-04-11T22:32:47.462Z,12.90
2023-04-11T22:35:15.549Z,12.90
2023-04-11T22:37:44.059Z,12.90
2023-04-11T22:40:13.629Z,12.90
2023-04-11T22:42:42.202Z,12.80
2023-04-11T22:45:12.122Z,12.80
2023-04-11T22:47:40.731Z,12.80
2023-04-11T22:50:11.488Z,12.80
2023-04-11T22:52:42.448Z,12.80
2023-04-11T22:55:11.920Z,12.70
2023-04-11T22:57:41.406Z,12.70
2023-04-11T23:00:12.675Z,12.70
2023-04-11T23:02:41.421Z,12.70
2023-04-11T23:05:11.677Z,12.70
2023-04-11T23:07:39.865Z,12.70
2023-04-11T23:10:12.265Z,12.70
2023-04-11T23:12:41.090Z,12.70
2023-04-11T23:15:10.800Z,12.60
2023-04-11T23:17:40.488Z,12.70
2023-04-11T23:20:13.476Z,12.70
2023-04-11T23:22:44.215Z,12.70
2023-04-11T23:25:14.113Z,12.70
2023-04-11T23:27:43.367Z,12.70
2023-04-11T23:30:12.593Z,12.70
2023-04-11T23:32:41.494Z,12.70
2023-04-11T23:35:12.197Z,12.70
2023-04-11T23:37:41.392Z,12.60
2023-04-11T23:40:13.960Z,12.60
2023-04-11T23:42:43.266Z,12.60
2023-04-11T23:45:13.090Z,12.60
2023-04-11T23:47:41.225Z,12.60
2023-04-11T23:50:12.644Z,12.50
2023-04-11T23:52:40.820Z,12.50
2023-04-11T23:55:10.394Z,12.50
2023-04-11T23:57:38.465Z,12.40
